CheckWX is a tool to help pilots better visualize weather data.  It is not intended as a substitute for an official pre-flight weather briefing.

00:41:11 UTC

ETND METAR
Diepholz Airport
Diepholz, Germany
Current

10 hours ago

ETND 261420Z 31010KT 9999 BKN016 07/06 Q1028 WHT
Observed
Mar-26 @ 14:20 UTC
Wind
  • 310° at 10 KTS
Visibility
10,000+ meters
Flight Rules
MVFR
Cloud Levels
  • Broken at 1,600' AGL
Temperature
C / 45°F
Dewpoint
C / 43°F
Humidity
93%
Altimeter
30.35" Hg
Pressure
1027.92 hPa
Previous

11 hours ago

ETND 261341Z 32012KT 9999 BKN016 08/04 Q1028 WHT FCST CANCEL
Observed
Mar-26 @ 13:41 UTC
Wind
  • 320° at 12 KTS
Visibility
10,000+ meters
Flight Rules
MVFR
Cloud Levels
  • Broken at 1,600' AGL
Temperature
C / 46°F
Dewpoint
C / 39°F
Humidity
76%
Altimeter
30.35" Hg
Pressure
1027.92 hPa
Previous

11 hours ago

ETND 261320Z 31012KT 9999 BKN016 BKN060 08/04 Q1028 WHT BLU TEMPO WHT
Observed
Mar-26 @ 13:20 UTC
Wind
  • 310° at 12 KTS
Visibility
10,000+ meters
Flight Rules
MVFR
Cloud Levels
  • Broken at 1,600' AGL
  • Broken at 6,000' AGL
Temperature
C / 46°F
Dewpoint
C / 39°F
Humidity
76%
Altimeter
30.35" Hg
Pressure
1027.92 hPa